sensor_id;sensor_type;location;lat;lon;timestamp;temperature;humidity
22996;DHT22;11664;49.774;8.650;2022-12-18T00:00:29;-8.40;99.90
22996;DHT22;11664;49.774;8.650;2022-12-18T00:02:55;-8.50;99.90
22996;DHT22;11664;49.774;8.650;2022-12-18T00:05:21;-8.40;99.90
22996;DHT22;11664;49.774;8.650;2022-12-18T00:07:46;-8.40;99.90
22996;DHT22;11664;49.774;8.650;2022-12-18T00:10:12;-8.40;99.90
22996;DHT22;11664;49.774;8.650;2022-12-18T00:12:38;-8.30;99.90
22996;DHT22;11664;49.774;8.650;2022-12-18T00:15:03;-8.30;99.90
22996;DHT22;11664;49.774;8.650;2022-12-18T00:17:29;-8.20;99.90
22996;DHT22;11664;49.774;8.650;2022-12-18T00:19:55;-8.20;99.90
22996;DHT22;11664;49.774;8.650;2022-12-18T00:22:20;-8.20;99.90
22996;DHT22;11664;49.774;8.650;2022-12-18T00:24:46;-8.20;99.90
22996;DHT22;11664;49.774;8.650;2022-12-18T00:27:11;-8.20;99.90
22996;DHT22;11664;49.774;8.650;2022-12-18T00:29:37;-8.20;99.90
22996;DHT22;11664;49.774;8.650;2022-12-18T00:32:05;-8.20;99.90
22996;DHT22;11664;49.774;8.650;2022-12-18T00:34:31;-8.10;99.90
22996;DHT22;11664;49.774;8.650;2022-12-18T00:36:56;-8.10;99.90
22996;DHT22;11664;49.774;8.650;2022-12-18T00:39:22;-8.20;99.90
22996;DHT22;11664;49.774;8.650;2022-12-18T00:41:47;-8.10;99.90
22996;DHT22;11664;49.774;8.650;2022-12-18T00:44:31;-8.10;99.90
22996;DHT22;11664;49.774;8.650;2022-12-18T00:46:57;-8.10;99.90
22996;DHT22;11664;49.774;8.650;2022-12-18T00:49:22;-8.00;99.90
22996;DHT22;11664;49.774;8.650;2022-12-18T00:51:48;-8.00;99.90
22996;DHT22;11664;49.774;8.650;2022-12-18T00:54:14;-8.00;99.90
22996;DHT22;11664;49.774;8.650;2022-12-18T00:56:40;-8.00;99.90
22996;DHT22;11664;49.774;8.650;2022-12-18T00:59:06;-8.00;99.90
22996;DHT22;11664;49.774;8.650;2022-12-18T01:01:32;-8.10;99.90
22996;DHT22;11664;49.774;8.650;2022-12-18T01:03:59;-8.10;99.90
22996;DHT22;11664;49.774;8.650;2022-12-18T01:06:24;-8.20;99.90
22996;DHT22;11664;49.774;8.650;2022-12-18T01:08:50;-8.20;99.90
22996;DHT22;11664;49.774;8.650;2022-12-18T01:11:18;-8.30;99.90
22996;DHT22;11664;49.774;8.650;2022-12-18T01:13:44;-8.40;99.90
22996;DHT22;11664;49.774;8.650;2022-12-18T01:16:14;-8.40;99.90
22996;DHT22;11664;49.774;8.650;2022-12-18T01:21:08;-8.50;99.90
22996;DHT22;11664;49.774;8.650;2022-12-18T01:23:34;-8.50;99.90
22996;DHT22;11664;49.774;8.650;2022-12-18T01:26:13;-8.60;99.90
22996;DHT22;11664;49.774;8.650;2022-12-18T01:28:39;-8.60;99.90
22996;DHT22;11664;49.774;8.650;2022-12-18T01:31:29;-8.70;99.90
22996;DHT22;11664;49.774;8.650;2022-12-18T01:33:55;-8.70;99.90
22996;DHT22;11664;49.774;8.650;2022-12-18T01:36:23;-8.70;99.90
22996;DHT22;11664;49.774;8.650;2022-12-18T01:38:50;-8.70;99.90
22996;DHT22;11664;49.774;8.650;2022-12-18T01:41:18;-8.70;99.90
22996;DHT22;11664;49.774;8.650;2022-12-18T01:43:57;-8.70;99.90
22996;DHT22;11664;49.774;8.650;2022-12-18T01:46:26;-8.80;99.90
22996;DHT22;11664;49.774;8.650;2022-12-18T01:49:00;-8.80;99.90
22996;DHT22;11664;49.774;8.650;2022-12-18T01:51:27;-8.70;99.90
22996;DHT22;11664;49.774;8.650;2022-12-18T01:53:53;-8.70;99.90
22996;DHT22;11664;49.774;8.650;2022-12-18T01:56:20;-8.70;99.90
22996;DHT22;11664;49.774;8.650;2022-12-18T01:59:06;-8.70;99.90
22996;DHT22;11664;49.774;8.650;2022-12-18T02:01:34;-8.70;99.90
22996;DHT22;11664;49.774;8.650;2022-12-18T02:04:21;-8.70;99.90
22996;DHT22;11664;49.774;8.650;2022-12-18T02:06:51;-8.80;99.90
22996;DHT22;11664;49.774;8.650;2022-12-18T02:09:32;-8.80;99.90
22996;DHT22;11664;49.774;8.650;2022-12-18T02:12:09;-8.80;99.90
22996;DHT22;11664;49.774;8.650;2022-12-18T02:14:51;-8.80;99.90
22996;DHT22;11664;49.774;8.650;2022-12-18T02:17:22;-8.80;99.90
22996;DHT22;11664;49.774;8.650;2022-12-18T02:20:20;-8.90;99.90
22996;DHT22;11664;49.774;8.650;2022-12-18T02:23:16;-8.80;99.90
22996;DHT22;11664;49.774;8.650;2022-12-18T02:28:26;-8.90;99.90
22996;DHT22;11664;49.774;8.650;2022-12-18T02:30:56;-9.00;99.90
22996;DHT22;11664;49.774;8.650;2022-12-18T02:33:27;-8.90;99.90
22996;DHT22;11664;49.774;8.650;2022-12-18T02:35:54;-8.90;99.90
22996;DHT22;11664;49.774;8.650;2022-12-18T02:38:22;-8.90;99.90
22996;DHT22;11664;49.774;8.650;2022-12-18T02:40:48;-8.90;99.90
22996;DHT22;11664;49.774;8.650;2022-12-18T02:43:15;-9.00;99.90
22996;DHT22;11664;49.774;8.650;2022-12-18T02:45:52;-9.00;99.90
22996;DHT22;11664;49.774;8.650;2022-12-18T02:48:23;-9.00;99.90
22996;DHT22;11664;49.774;8.650;2022-12-18T02:51:03;-9.00;99.90
22996;DHT22;11664;49.774;8.650;2022-12-18T02:53:45;-9.00;99.90
22996;DHT22;11664;49.774;8.650;2022-12-18T02:56:20;-9.00;99.90
22996;DHT22;11664;49.774;8.650;2022-12-18T03:01:31;-9.10;99.90
22996;DHT22;11664;49.774;8.650;2022-12-18T03:04:04;-9.10;99.90
22996;DHT22;11664;49.774;8.650;2022-12-18T03:06:37;-9.10;99.90
22996;DHT22;11664;49.774;8.650;2022-12-18T03:09:12;-9.00;99.90
22996;DHT22;11664;49.774;8.650;2022-12-18T03:11:42;-9.10;99.90
22996;DHT22;11664;49.774;8.650;2022-12-18T03:14:31;-9.00;99.90
22996;DHT22;11664;49.774;8.650;2022-12-18T03:17:02;-9.10;99.90
22996;DHT22;11664;49.774;8.650;2022-12-18T03:19:29;-9.10;99.90
22996;DHT22;11664;49.774;8.650;2022-12-18T03:21:57;-9.00;99.90
22996;DHT22;11664;49.774;8.650;2022-12-18T03:24:27;-9.00;99.90
22996;DHT22;11664;49.774;8.650;2022-12-18T03:26:58;-9.10;99.90
22996;DHT22;11664;49.774;8.650;2022-12-18T03:29:35;-9.00;99.90
22996;DHT22;11664;49.774;8.650;2022-12-18T03:32:08;-9.00;99.90
22996;DHT22;11664;49.774;8.650;2022-12-18T03:34:37;-9.10;99.90
22996;DHT22;11664;49.774;8.650;2022-12-18T03:37:04;-9.10;99.90
22996;DHT22;11664;49.774;8.650;2022-12-18T03:39:30;-9.00;99.90
22996;DHT22;11664;49.774;8.650;2022-12-18T03:41:59;-9.10;99.90
22996;DHT22;11664;49.774;8.650;2022-12-18T03:44:30;-9.10;99.90
22996;DHT22;11664;49.774;8.650;2022-12-18T03:47:06;-9.00;99.90
22996;DHT22;11664;49.774;8.650;2022-12-18T03:52:48;-9.00;99.90
22996;DHT22;11664;49.774;8.650;2022-12-18T03:55:15;-9.00;99.90
22996;DHT22;11664;49.774;8.650;2022-12-18T03:57:44;-9.10;99.90
22996;DHT22;11664;49.774;8.650;2022-12-18T04:00:15;-9.10;99.90
22996;DHT22;11664;49.774;8.650;2022-12-18T04:02:53;-9.10;99.90
22996;DHT22;11664;49.774;8.650;2022-12-18T04:05:21;-9.20;99.90
22996;DHT22;11664;49.774;8.650;2022-12-18T04:07:49;-9.20;99.90
22996;DHT22;11664;49.774;8.650;2022-12-18T04:10:16;-9.20;99.90
22996;DHT22;11664;49.774;8.650;2022-12-18T04:12:42;-9.20;99.90
22996;DHT22;11664;49.774;8.650;2022-12-18T04:15:09;-9.20;99.90
22996;DHT22;11664;49.774;8.650;2022-12-18T04:17:35;-9.20;99.90
22996;DHT22;11664;49.774;8.650;2022-12-18T04:20:01;-9.30;99.90
22996;DHT22;11664;49.774;8.650;2022-12-18T04:22:26;-9.30;99.90
22996;DHT22;11664;49.774;8.650;2022-12-18T04:24:52;-9.30;99.90
22996;DHT22;11664;49.774;8.650;2022-12-18T04:27:17;-9.30;99.90
22996;DHT22;11664;49.774;8.650;2022-12-18T04:29:43;-9.40;99.90
22996;DHT22;11664;49.774;8.650;2022-12-18T04:32:09;-9.40;99.90
22996;DHT22;11664;49.774;8.650;2022-12-18T04:34:34;-9.30;99.90
22996;DHT22;11664;49.774;8.650;2022-12-18T04:37:00;-9.40;99.90
22996;DHT22;11664;49.774;8.650;2022-12-18T04:39:25;-9.40;99.90
22996;DHT22;11664;49.774;8.650;2022-12-18T04:41:51;-9.50;99.90
22996;DHT22;11664;49.774;8.650;2022-12-18T04:44:16;-9.50;99.90
22996;DHT22;11664;49.774;8.650;2022-12-18T04:46:42;-9.60;99.90
22996;DHT22;11664;49.774;8.650;2022-12-18T04:49:08;-9.60;99.90
22996;DHT22;11664;49.774;8.650;2022-12-18T04:51:35;-9.50;99.90
22996;DHT22;11664;49.774;8.650;2022-12-18T04:54:01;-9.60;99.90
22996;DHT22;11664;49.774;8.650;2022-12-18T04:56:27;-9.60;99.90
22996;DHT22;11664;49.774;8.650;2022-12-18T04:58:54;-9.60;99.90
22996;DHT22;11664;49.774;8.650;2022-12-18T05:01:19;-9.70;99.90
22996;DHT22;11664;49.774;8.650;2022-12-18T05:03:45;-9.70;99.90
22996;DHT22;11664;49.774;8.650;2022-12-18T05:06:11;-9.70;99.90
22996;DHT22;11664;49.774;8.650;2022-12-18T05:08:36;-9.70;99.90
22996;DHT22;11664;49.774;8.650;2022-12-18T05:11:05;-9.70;99.90
22996;DHT22;11664;49.774;8.650;2022-12-18T05:13:31;-9.70;99.90
22996;DHT22;11664;49.774;8.650;2022-12-18T05:15:57;-9.70;99.90
22996;DHT22;11664;49.774;8.650;2022-12-18T05:18:24;-9.70;99.90
22996;DHT22;11664;49.774;8.650;2022-12-18T05:20:50;-9.70;99.90
22996;DHT22;11664;49.774;8.650;2022-12-18T05:23:16;-9.70;99.90
22996;DHT22;11664;49.774;8.650;2022-12-18T05:25:42;-9.80;99.90
22996;DHT22;11664;49.774;8.650;2022-12-18T05:28:07;-9.70;99.90
22996;DHT22;11664;49.774;8.650;2022-12-18T05:30:34;-9.70;99.90
22996;DHT22;11664;49.774;8.650;2022-12-18T05:32:59;-9.80;99.90
22996;DHT22;11664;49.774;8.650;2022-12-18T05:35:26;-9.80;99.90
22996;DHT22;11664;49.774;8.650;2022-12-18T05:37:52;-9.80;99.90
22996;DHT22;11664;49.774;8.650;2022-12-18T05:40:17;-9.80;99.90
22996;DHT22;11664;49.774;8.650;2022-12-18T05:42:43;-9.80;99.90
22996;DHT22;11664;49.774;8.650;2022-12-18T05:45:08;-9.70;99.90
22996;DHT22;11664;49.774;8.650;2022-12-18T05:47:34;-9.70;99.90
22996;DHT22;11664;49.774;8.650;2022-12-18T05:50:00;-9.60;99.90
22996;DHT22;11664;49.774;8.650;2022-12-18T05:52:26;-9.60;99.90
22996;DHT22;11664;49.774;8.650;2022-12-18T05:54:51;-9.60;99.90
22996;DHT22;11664;49.774;8.650;2022-12-18T05:57:17;-9.50;99.90
22996;DHT22;11664;49.774;8.650;2022-12-18T05:59:42;-9.50;99.90
22996;DHT22;11664;49.774;8.650;2022-12-18T06:02:08;-9.50;99.90
22996;DHT22;11664;49.774;8.650;2022-12-18T06:04:33;-9.60;99.90
22996;DHT22;11664;49.774;8.650;2022-12-18T06:06:59;-9.60;99.90
22996;DHT22;11664;49.774;8.650;2022-12-18T06:09:25;-9.70;99.90
22996;DHT22;11664;49.774;8.650;2022-12-18T06:11:51;-9.70;99.90
22996;DHT22;11664;49.774;8.650;2022-12-18T06:14:17;-9.70;99.90
22996;DHT22;11664;49.774;8.650;2022-12-18T06:16:42;-9.70;99.90
22996;DHT22;11664;49.774;8.650;2022-12-18T06:19:14;-9.70;99.90
22996;DHT22;11664;49.774;8.650;2022-12-18T06:21:40;-9.70;99.90
22996;DHT22;11664;49.774;8.650;2022-12-18T06:24:06;-9.60;99.90
22996;DHT22;11664;49.774;8.650;2022-12-18T06:26:31;-9.60;99.90
22996;DHT22;11664;49.774;8.650;2022-12-18T06:28:57;-9.50;99.90
22996;DHT22;11664;49.774;8.650;2022-12-18T06:31:23;-9.50;99.90
22996;DHT22;11664;49.774;8.650;2022-12-18T06:33:48;-9.50;99.90
22996;DHT22;11664;49.774;8.650;2022-12-18T06:36:14;-9.50;99.90
22996;DHT22;11664;49.774;8.650;2022-12-18T06:38:43;-9.50;99.90
22996;DHT22;11664;49.774;8.650;2022-12-18T06:41:13;-9.50;99.90
22996;DHT22;11664;49.774;8.650;2022-12-18T06:43:39;-9.50;99.90
22996;DHT22;11664;49.774;8.650;2022-12-18T06:46:06;-9.40;99.90
22996;DHT22;11664;49.774;8.650;2022-12-18T06:48:32;-9.40;99.90
22996;DHT22;11664;49.774;8.650;2022-12-18T06:50:58;-9.30;99.90
22996;DHT22;11664;49.774;8.650;2022-12-18T06:53:23;-9.30;99.90
22996;DHT22;11664;49.774;8.650;2022-12-18T06:55:49;-9.20;99.90
22996;DHT22;11664;49.774;8.650;2022-12-18T06:58:15;-9.20;99.90
22996;DHT22;11664;49.774;8.650;2022-12-18T07:00:41;-9.30;99.90
22996;DHT22;11664;49.774;8.650;2022-12-18T07:03:07;-9.30;99.90
22996;DHT22;11664;49.774;8.650;2022-12-18T07:05:32;-9.30;99.90
22996;DHT22;11664;49.774;8.650;2022-12-18T07:07:59;-9.40;99.90
22996;DHT22;11664;49.774;8.650;2022-12-18T07:10:24;-9.30;99.90
22996;DHT22;11664;49.774;8.650;2022-12-18T07:12:50;-9.30;99.90
22996;DHT22;11664;49.774;8.650;2022-12-18T07:15:15;-8.10;99.90
22996;DHT22;11664;49.774;8.650;2022-12-18T07:17:41;-8.50;99.90
22996;DHT22;11664;49.774;8.650;2022-12-18T07:20:07;-8.60;99.90
22996;DHT22;11664;49.774;8.650;2022-12-18T07:22:33;-8.80;99.90
22996;DHT22;11664;49.774;8.650;2022-12-18T07:24:58;-8.90;99.90
22996;DHT22;11664;49.774;8.650;2022-12-18T07:27:24;-9.00;99.90
22996;DHT22;11664;49.774;8.650;2022-12-18T07:29:49;-9.00;99.90
22996;DHT22;11664;49.774;8.650;2022-12-18T07:32:15;-9.00;99.90
22996;DHT22;11664;49.774;8.650;2022-12-18T07:34:41;-9.10;99.90
22996;DHT22;11664;49.774;8.650;2022-12-18T07:37:06;-9.10;99.90
22996;DHT22;11664;49.774;8.650;2022-12-18T07:39:32;-9.20;99.90
22996;DHT22;11664;49.774;8.650;2022-12-18T07:41:57;-9.20;99.90
22996;DHT22;11664;49.774;8.650;2022-12-18T07:47:08;-9.40;99.90
22996;DHT22;11664;49.774;8.650;2022-12-18T07:49:33;-9.50;99.90
22996;DHT22;11664;49.774;8.650;2022-12-18T07:51:59;-9.50;99.90
22996;DHT22;11664;49.774;8.650;2022-12-18T07:54:25;-9.50;99.90
22996;DHT22;11664;49.774;8.650;2022-12-18T07:56:51;-9.50;99.90
22996;DHT22;11664;49.774;8.650;2022-12-18T07:59:17;-9.40;99.90
22996;DHT22;11664;49.774;8.650;2022-12-18T08:01:43;-9.40;99.90
22996;DHT22;11664;49.774;8.650;2022-12-18T08:04:09;-9.40;99.90
22996;DHT22;11664;49.774;8.650;2022-12-18T08:06:34;-9.30;99.90
22996;DHT22;11664;49.774;8.650;2022-12-18T08:09:00;-9.40;99.90
22996;DHT22;11664;49.774;8.650;2022-12-18T08:11:27;-9.50;99.90
22996;DHT22;11664;49.774;8.650;2022-12-18T08:13:53;-9.50;99.90
22996;DHT22;11664;49.774;8.650;2022-12-18T08:16:20;-9.50;99.90
22996;DHT22;11664;49.774;8.650;2022-12-18T08:18:45;-9.50;99.90
22996;DHT22;11664;49.774;8.650;2022-12-18T08:21:13;-9.40;99.90
22996;DHT22;11664;49.774;8.650;2022-12-18T08:23:40;-9.30;99.90
22996;DHT22;11664;49.774;8.650;2022-12-18T08:26:06;-9.30;99.90
22996;DHT22;11664;49.774;8.650;2022-12-18T08:28:32;-9.30;99.90
22996;DHT22;11664;49.774;8.650;2022-12-18T08:30:58;-9.30;99.90
22996;DHT22;11664;49.774;8.650;2022-12-18T08:33:23;-9.20;99.90
22996;DHT22;11664;49.774;8.650;2022-12-18T08:35:49;-9.10;99.90
22996;DHT22;11664;49.774;8.650;2022-12-18T08:38:15;-9.10;99.90
22996;DHT22;11664;49.774;8.650;2022-12-18T08:40:40;-9.10;99.90
22996;DHT22;11664;49.774;8.650;2022-12-18T08:43:09;-9.10;99.90
22996;DHT22;11664;49.774;8.650;2022-12-18T08:45:53;-9.00;99.90
22996;DHT22;11664;49.774;8.650;2022-12-18T08:48:19;-9.00;99.90
22996;DHT22;11664;49.774;8.650;2022-12-18T08:50:54;-8.90;99.90
22996;DHT22;11664;49.774;8.650;2022-12-18T08:53:20;-8.90;99.90
22996;DHT22;11664;49.774;8.650;2022-12-18T08:55:46;-8.80;99.90
22996;DHT22;11664;49.774;8.650;2022-12-18T08:58:11;-8.70;99.90
22996;DHT22;11664;49.774;8.650;2022-12-18T09:00:37;-8.70;99.90
22996;DHT22;11664;49.774;8.650;2022-12-18T09:03:02;-8.60;99.90
22996;DHT22;11664;49.774;8.650;2022-12-18T09:05:28;-8.50;99.90
22996;DHT22;11664;49.774;8.650;2022-12-18T09:07:53;-8.50;99.90
22996;DHT22;11664;49.774;8.650;2022-12-18T09:10:19;-8.40;99.90
22996;DHT22;11664;49.774;8.650;2022-12-18T09:12:44;-8.40;99.90
22996;DHT22;11664;49.774;8.650;2022-12-18T09:15:10;-8.30;99.90
22996;DHT22;11664;49.774;8.650;2022-12-18T09:17:36;-8.30;99.90
22996;DHT22;11664;49.774;8.650;2022-12-18T09:20:02;-8.20;99.90
22996;DHT22;11664;49.774;8.650;2022-12-18T09:22:28;-8.10;99.90
22996;DHT22;11664;49.774;8.650;2022-12-18T09:24:54;-8.00;99.90
22996;DHT22;11664;49.774;8.650;2022-12-18T09:27:19;-8.00;99.90
22996;DHT22;11664;49.774;8.650;2022-12-18T09:29:45;-7.90;99.90
22996;DHT22;11664;49.774;8.650;2022-12-18T09:32:10;-7.80;99.90
22996;DHT22;11664;49.774;8.650;2022-12-18T09:34:36;-7.70;99.90
22996;DHT22;11664;49.774;8.650;2022-12-18T09:37:01;-7.60;99.90
22996;DHT22;11664;49.774;8.650;2022-12-18T09:39:27;-7.60;99.90
22996;DHT22;11664;49.774;8.650;2022-12-18T09:41:55;-7.50;99.90
22996;DHT22;11664;49.774;8.650;2022-12-18T09:44:23;-7.40;99.90
22996;DHT22;11664;49.774;8.650;2022-12-18T09:47:14;-7.30;99.90
22996;DHT22;11664;49.774;8.650;2022-12-18T09:52:27;-7.00;99.90
22996;DHT22;11664;49.774;8.650;2022-12-18T09:55:01;-6.80;99.90
22996;DHT22;11664;49.774;8.650;2022-12-18T09:57:30;-6.70;99.90
22996;DHT22;11664;49.774;8.650;2022-12-18T10:00:15;-6.50;99.90
22996;DHT22;11664;49.774;8.650;2022-12-18T10:02:42;-6.40;99.90
22996;DHT22;11664;49.774;8.650;2022-12-18T10:07:59;-6.20;99.90
22996;DHT22;11664;49.774;8.650;2022-12-18T10:10:48;-6.10;99.90
22996;DHT22;11664;49.774;8.650;2022-12-18T10:16:16;-6.00;99.90
22996;DHT22;11664;49.774;8.650;2022-12-18T10:21:17;-5.70;99.90
22996;DHT22;11664;49.774;8.650;2022-12-18T10:26:31;-5.40;99.90
22996;DHT22;11664;49.774;8.650;2022-12-18T10:28:57;-5.30;99.90
22996;DHT22;11664;49.774;8.650;2022-12-18T10:31:24;-5.20;99.90
22996;DHT22;11664;49.774;8.650;2022-12-18T10:33:51;-5.10;99.90
22996;DHT22;11664;49.774;8.650;2022-12-18T10:38:42;-4.70;99.90
22996;DHT22;11664;49.774;8.650;2022-12-18T10:43:42;-4.40;99.90
22996;DHT22;11664;49.774;8.650;2022-12-18T10:48:49;-4.20;99.90
22996;DHT22;11664;49.774;8.650;2022-12-18T10:51:33;-4.10;99.90
22996;DHT22;11664;49.774;8.650;2022-12-18T10:54:21;-4.10;99.90
22996;DHT22;11664;49.774;8.650;2022-12-18T10:56:47;-4.00;99.90
22996;DHT22;11664;49.774;8.650;2022-12-18T10:59:15;-4.10;99.90
22996;DHT22;11664;49.774;8.650;2022-12-18T11:01:59;-4.10;99.90
22996;DHT22;11664;49.774;8.650;2022-12-18T11:04:27;-3.90;99.90
22996;DHT22;11664;49.774;8.650;2022-12-18T11:06:56;-3.90;99.90
22996;DHT22;11664;49.774;8.650;2022-12-18T11:09:27;-3.80;99.90
22996;DHT22;11664;49.774;8.650;2022-12-18T11:11:55;-3.70;99.90
22996;DHT22;11664;49.774;8.650;2022-12-18T11:14:25;-3.50;99.90
22996;DHT22;11664;49.774;8.650;2022-12-18T11:16:51;-3.40;99.90
22996;DHT22;11664;49.774;8.650;2022-12-18T11:19:33;-3.40;99.90
22996;DHT22;11664;49.774;8.650;2022-12-18T11:22:01;-3.30;99.90
22996;DHT22;11664;49.774;8.650;2022-12-18T11:24:36;-3.10;99.90
22996;DHT22;11664;49.774;8.650;2022-12-18T11:27:04;-3.10;99.90
22996;DHT22;11664;49.774;8.650;2022-12-18T11:29:39;-3.10;99.90
22996;DHT22;11664;49.774;8.650;2022-12-18T11:35:04;-3.10;99.90
22996;DHT22;11664;49.774;8.650;2022-12-18T11:37:34;-3.10;99.90
22996;DHT22;11664;49.774;8.650;2022-12-18T11:40:33;-3.00;99.90
22996;DHT22;11664;49.774;8.650;2022-12-18T11:43:27;-3.00;99.90
22996;DHT22;11664;49.774;8.650;2022-12-18T11:46:05;-3.00;99.90
22996;DHT22;11664;49.774;8.650;2022-12-18T11:48:37;-3.00;99.90
22996;DHT22;11664;49.774;8.650;2022-12-18T11:51:05;-3.10;99.90
22996;DHT22;11664;49.774;8.650;2022-12-18T11:53:35;-2.90;99.90
22996;DHT22;11664;49.774;8.650;2022-12-18T11:56:51;-2.80;99.90
22996;DHT22;11664;49.774;8.650;2022-12-18T12:02:24;-3.00;99.90
22996;DHT22;11664;49.774;8.650;2022-12-18T12:05:24;-3.00;99.90
22996;DHT22;11664;49.774;8.650;2022-12-18T12:11:20;-2.90;99.90
22996;DHT22;11664;49.774;8.650;2022-12-18T12:16:27;-2.80;99.90
22996;DHT22;11664;49.774;8.650;2022-12-18T12:21:52;-2.90;99.90
22996;DHT22;11664;49.774;8.650;2022-12-18T12:24:49;-2.90;99.90
22996;DHT22;11664;49.774;8.650;2022-12-18T12:32:34;-3.10;99.90
22996;DHT22;11664;49.774;8.650;2022-12-18T12:38:20;-3.10;99.90
22996;DHT22;11664;49.774;8.650;2022-12-18T12:40:56;-3.10;99.90
22996;DHT22;11664;49.774;8.650;2022-12-18T12:43:42;-3.10;99.90
22996;DHT22;11664;49.774;8.650;2022-12-18T12:46:13;-3.10;99.90
22996;DHT22;11664;49.774;8.650;2022-12-18T12:48:50;-3.00;99.90
22996;DHT22;11664;49.774;8.650;2022-12-18T12:51:20;-3.10;99.90
22996;DHT22;11664;49.774;8.650;2022-12-18T12:53:48;-3.10;99.90
22996;DHT22;11664;49.774;8.650;2022-12-18T12:56:16;-3.20;99.90
22996;DHT22;11664;49.774;8.650;2022-12-18T13:04:39;-3.20;99.90
22996;DHT22;11664;49.774;8.650;2022-12-18T13:07:17;-3.20;99.90
22996;DHT22;11664;49.774;8.650;2022-12-18T13:15:30;-3.20;99.90
22996;DHT22;11664;49.774;8.650;2022-12-18T13:18:23;-3.30;99.90
22996;DHT22;11664;49.774;8.650;2022-12-18T13:34:23;-3.40;99.90
22996;DHT22;11664;49.774;8.650;2022-12-18T13:36:53;-3.30;99.90
22996;DHT22;11664;49.774;8.650;2022-12-18T13:41:50;-3.40;99.90
22996;DHT22;11664;49.774;8.650;2022-12-18T13:44:34;-3.30;99.90
22996;DHT22;11664;49.774;8.650;2022-12-18T13:47:02;-3.40;99.90
22996;DHT22;11664;49.774;8.650;2022-12-18T13:49:38;-3.30;99.90
22996;DHT22;11664;49.774;8.650;2022-12-18T13:52:17;-3.20;99.90
22996;DHT22;11664;49.774;8.650;2022-12-18T13:54:47;-3.20;99.90
22996;DHT22;11664;49.774;8.650;2022-12-18T13:57:37;-3.20;99.90
22996;DHT22;11664;49.774;8.650;2022-12-18T14:02:49;-3.10;99.90
22996;DHT22;11664;49.774;8.650;2022-12-18T14:05:42;-3.10;99.90
22996;DHT22;11664;49.774;8.650;2022-12-18T14:08:15;-3.10;99.90
22996;DHT22;11664;49.774;8.650;2022-12-18T14:10:45;-3.10;99.90
22996;DHT22;11664;49.774;8.650;2022-12-18T14:13:23;-3.10;99.90
22996;DHT22;11664;49.774;8.650;2022-12-18T14:15:50;-3.10;99.90
22996;DHT22;11664;49.774;8.650;2022-12-18T14:18:25;-3.10;99.90
22996;DHT22;11664;49.774;8.650;2022-12-18T14:21:00;-3.20;99.90
22996;DHT22;11664;49.774;8.650;2022-12-18T14:25:55;-3.30;99.90
22996;DHT22;11664;49.774;8.650;2022-12-18T14:28:20;-3.30;99.90
22996;DHT22;11664;49.774;8.650;2022-12-18T14:30:47;-3.40;99.90
22996;DHT22;11664;49.774;8.650;2022-12-18T14:36:05;-3.60;99.90
22996;DHT22;11664;49.774;8.650;2022-12-18T14:41:06;-3.60;99.90
22996;DHT22;11664;49.774;8.650;2022-12-18T14:43:36;-3.70;99.90
22996;DHT22;11664;49.774;8.650;2022-12-18T14:46:04;-3.70;99.90
22996;DHT22;11664;49.774;8.650;2022-12-18T14:51:02;-3.70;99.90
22996;DHT22;11664;49.774;8.650;2022-12-18T14:53:43;-3.80;99.90
22996;DHT22;11664;49.774;8.650;2022-12-18T14:56:27;-3.90;99.90
22996;DHT22;11664;49.774;8.650;2022-12-18T14:58:59;-3.90;99.90
22996;DHT22;11664;49.774;8.650;2022-12-18T15:01:37;-3.90;99.90
22996;DHT22;11664;49.774;8.650;2022-12-18T15:04:04;-4.00;99.90
22996;DHT22;11664;49.774;8.650;2022-12-18T15:06:36;-4.00;99.90
22996;DHT22;11664;49.774;8.650;2022-12-18T15:09:25;-4.10;99.90
22996;DHT22;11664;49.774;8.650;2022-12-18T15:12:00;-4.20;99.90
22996;DHT22;11664;49.774;8.650;2022-12-18T15:14:38;-4.20;99.90
22996;DHT22;11664;49.774;8.650;2022-12-18T15:17:20;-4.20;99.90
22996;DHT22;11664;49.774;8.650;2022-12-18T15:19:48;-4.20;99.90
22996;DHT22;11664;49.774;8.650;2022-12-18T15:22:34;-4.30;99.90
22996;DHT22;11664;49.774;8.650;2022-12-18T15:25:01;-4.40;99.90
22996;DHT22;11664;49.774;8.650;2022-12-18T15:27:33;-4.30;99.90
22996;DHT22;11664;49.774;8.650;2022-12-18T15:32:39;-4.40;99.90
22996;DHT22;11664;49.774;8.650;2022-12-18T15:37:39;-4.40;99.90
22996;DHT22;11664;49.774;8.650;2022-12-18T15:40:07;-4.40;99.90
22996;DHT22;11664;49.774;8.650;2022-12-18T15:42:33;-4.50;99.90
22996;DHT22;11664;49.774;8.650;2022-12-18T15:45:17;-4.60;99.90
22996;DHT22;11664;49.774;8.650;2022-12-18T15:47:43;-4.60;99.90
22996;DHT22;11664;49.774;8.650;2022-12-18T15:50:09;-4.60;99.90
22996;DHT22;11664;49.774;8.650;2022-12-18T15:52:46;-4.70;99.90
22996;DHT22;11664;49.774;8.650;2022-12-18T15:55:21;-4.70;99.90
22996;DHT22;11664;49.774;8.650;2022-12-18T15:58:07;-4.70;99.90
22996;DHT22;11664;49.774;8.650;2022-12-18T16:00:35;-4.70;99.90
22996;DHT22;11664;49.774;8.650;2022-12-18T16:03:01;-4.70;99.90
22996;DHT22;11664;49.774;8.650;2022-12-18T16:05:27;-4.70;99.90
22996;DHT22;11664;49.774;8.650;2022-12-18T16:07:53;-4.70;99.90
22996;DHT22;11664;49.774;8.650;2022-12-18T16:10:18;-4.70;99.90
22996;DHT22;11664;49.774;8.650;2022-12-18T16:12:44;-4.80;99.90
22996;DHT22;11664;49.774;8.650;2022-12-18T16:15:12;-4.80;99.90
22996;DHT22;11664;49.774;8.650;2022-12-18T16:17:45;-4.80;99.90
22996;DHT22;11664;49.774;8.650;2022-12-18T16:20:16;-4.70;99.90
22996;DHT22;11664;49.774;8.650;2022-12-18T16:22:43;-4.70;99.90
22996;DHT22;11664;49.774;8.650;2022-12-18T16:25:17;-4.70;99.90
22996;DHT22;11664;49.774;8.650;2022-12-18T16:27:43;-4.70;99.90
22996;DHT22;11664;49.774;8.650;2022-12-18T16:30:16;-4.70;99.90
22996;DHT22;11664;49.774;8.650;2022-12-18T16:32:43;-4.70;99.90
22996;DHT22;11664;49.774;8.650;2022-12-18T16:35:13;-4.70;99.90
22996;DHT22;11664;49.774;8.650;2022-12-18T16:37:39;-4.70;99.90
22996;DHT22;11664;49.774;8.650;2022-12-18T16:40:07;-4.70;99.90
22996;DHT22;11664;49.774;8.650;2022-12-18T16:42:35;-4.70;99.90
22996;DHT22;11664;49.774;8.650;2022-12-18T16:45:01;-4.60;99.90
22996;DHT22;11664;49.774;8.650;2022-12-18T16:47:27;-4.60;99.90
22996;DHT22;11664;49.774;8.650;2022-12-18T16:49:53;-4.70;99.90
22996;DHT22;11664;49.774;8.650;2022-12-18T16:52:19;-4.60;99.90
22996;DHT22;11664;49.774;8.650;2022-12-18T16:54:45;-4.60;99.90
22996;DHT22;11664;49.774;8.650;2022-12-18T16:57:13;-4.60;99.90
22996;DHT22;11664;49.774;8.650;2022-12-18T16:59:39;-4.60;99.90
22996;DHT22;11664;49.774;8.650;2022-12-18T17:02:06;-4.60;99.90
22996;DHT22;11664;49.774;8.650;2022-12-18T17:04:36;-4.60;99.90
22996;DHT22;11664;49.774;8.650;2022-12-18T17:07:01;-4.60;99.90
22996;DHT22;11664;49.774;8.650;2022-12-18T17:09:29;-4.60;99.90
22996;DHT22;11664;49.774;8.650;2022-12-18T17:11:55;-4.60;99.90
22996;DHT22;11664;49.774;8.650;2022-12-18T17:14:23;-4.60;99.90
22996;DHT22;11664;49.774;8.650;2022-12-18T17:16:49;-4.50;99.90
22996;DHT22;11664;49.774;8.650;2022-12-18T17:19:14;-4.50;99.90
22996;DHT22;11664;49.774;8.650;2022-12-18T17:21:42;-4.50;99.90
22996;DHT22;11664;49.774;8.650;2022-12-18T17:24:08;-4.40;99.90
22996;DHT22;11664;49.774;8.650;2022-12-18T17:26:33;-4.50;99.90
22996;DHT22;11664;49.774;8.650;2022-12-18T17:28:59;-4.40;99.90